sensor_id;sensor_type;location;lat;lon;timestamp;pressure;altitude;pressure_sealevel;temperature;humidity
55656;BME280;41530;52.382;5.270;2023-02-18T00:02:04;102364.97;;;15.88;56.24
55656;BME280;41530;52.382;5.270;2023-02-18T00:04:31;102364.88;;;15.90;56.24
55656;BME280;41530;52.382;5.270;2023-02-18T00:06:58;102365.81;;;15.89;56.03
55656;BME280;41530;52.382;5.270;2023-02-18T00:09:25;102379.94;;;15.89;56.01
55656;BME280;41530;52.382;5.270;2023-02-18T00:11:52;102374.63;;;15.89;56.06
55656;BME280;41530;52.382;5.270;2023-02-18T00:14:19;102366.03;;;15.86;56.09
55656;BME280;41530;52.382;5.270;2023-02-18T00:16:46;102374.00;;;15.86;56.37
55656;BME280;41530;52.382;5.270;2023-02-18T00:19:15;102368.69;;;15.86;56.11
55656;BME280;41530;52.382;5.270;2023-02-18T00:21:43;102368.69;;;15.86;56.03
55656;BME280;41530;52.382;5.270;2023-02-18T00:24:12;102363.50;;;15.84;56.14
55656;BME280;41530;52.382;5.270;2023-02-18T00:26:41;102374.00;;;15.86;55.81
55656;BME280;41530;52.382;5.270;2023-02-18T00:29:07;102366.97;;;15.85;56.23
55656;BME280;41530;52.382;5.270;2023-02-18T00:31:35;102357.34;;;15.84;56.10
55656;BME280;41530;52.382;5.270;2023-02-18T00:34:03;102366.25;;;15.83;55.95
55656;BME280;41530;52.382;5.270;2023-02-18T00:36:30;102362.75;;;15.82;56.27
55656;BME280;41530;52.382;5.270;2023-02-18T00:38:59;102356.59;;;15.82;56.15
55656;BME280;41530;52.382;5.270;2023-02-18T00:41:27;102343.34;;;15.82;56.24
55656;BME280;41530;52.382;5.270;2023-02-18T00:43:54;102337.28;;;15.80;56.07
55656;BME280;41530;52.382;5.270;2023-02-18T00:46:22;102341.63;;;15.81;55.96
55656;BME280;41530;52.382;5.270;2023-02-18T00:48:48;102335.47;;;15.80;56.18
55656;BME280;41530;52.382;5.270;2023-02-18T00:51:15;102334.63;;;15.80;55.97
55656;BME280;41530;52.382;5.270;2023-02-18T00:53:42;102328.47;;;15.79;56.08
55656;BME280;41530;52.382;5.270;2023-02-18T00:56:09;102333.78;;;15.79;56.13
55656;BME280;41530;52.382;5.270;2023-02-18T00:58:36;102331.13;;;15.79;56.08
55656;BME280;41530;52.382;5.270;2023-02-18T01:01:04;102338.22;;;15.79;55.90
55656;BME280;41530;52.382;5.270;2023-02-18T01:03:34;102330.25;;;15.79;56.03
55656;BME280;41530;52.382;5.270;2023-02-18T01:06:00;102325.91;;;15.78;56.27
55656;BME280;41530;52.382;5.270;2023-02-18T01:08:27;102324.31;;;15.75;56.14
55656;BME280;41530;52.382;5.270;2023-02-18T01:10:56;102320.59;;;15.78;56.01
55656;BME280;41530;52.382;5.270;2023-02-18T01:13:23;102323.25;;;15.78;56.02
55656;BME280;41530;52.382;5.270;2023-02-18T01:15:50;102339.19;;;15.78;56.05
55656;BME280;41530;52.382;5.270;2023-02-18T01:18:18;102321.56;;;15.77;56.00
55656;BME280;41530;52.382;5.270;2023-02-18T01:20:45;102324.41;;;15.74;56.02
55656;BME280;41530;52.382;5.270;2023-02-18T01:23:13;102312.00;;;15.74;56.15
55656;BME280;41530;52.382;5.270;2023-02-18T01:25:40;102313.78;;;15.74;55.78
55656;BME280;41530;52.382;5.270;2023-02-18T01:28:08;102313.78;;;15.74;56.09
55656;BME280;41530;52.382;5.270;2023-02-18T01:30:34;102310.38;;;15.72;56.22
55656;BME280;41530;52.382;5.270;2023-02-18T01:33:01;102324.50;;;15.72;56.10
55656;BME280;41530;52.382;5.270;2023-02-18T01:35:28;102312.31;;;15.70;56.17
55656;BME280;41530;52.382;5.270;2023-02-18T01:37:54;102314.97;;;15.70;56.18
55656;BME280;41530;52.382;5.270;2023-02-18T01:40:24;102306.16;;;15.69;56.24
55656;BME280;41530;52.382;5.270;2023-02-18T01:42:51;102308.81;;;15.69;55.99
55656;BME280;41530;52.382;5.270;2023-02-18T01:50:32;102285.69;;;15.71;56.18
55656;BME280;41530;52.382;5.270;2023-02-18T01:53:00;102285.78;;;15.70;56.02
55656;BME280;41530;52.382;5.270;2023-02-18T01:55:28;102289.16;;;15.72;55.99
55656;BME280;41530;52.382;5.270;2023-02-18T01:57:54;102273.56;;;15.67;56.12
55656;BME280;41530;52.382;5.270;2023-02-18T02:00:21;102270.59;;;15.72;56.19
55656;BME280;41530;52.382;5.270;2023-02-18T02:02:50;102263.63;;;15.71;56.17
55656;BME280;41530;52.382;5.270;2023-02-18T02:05:19;102251.41;;;15.68;56.08
55656;BME280;41530;52.382;5.270;2023-02-18T02:07:50;102242.38;;;15.71;56.10
55656;BME280;41530;52.382;5.270;2023-02-18T02:10:18;102231.88;;;15.69;56.11
55656;BME280;41530;52.382;5.270;2023-02-18T02:13:20;102220.41;;;15.68;56.27
55656;BME280;41530;52.382;5.270;2023-02-18T02:18:46;102210.66;;;15.69;56.17
55656;BME280;41530;52.382;5.270;2023-02-18T02:21:38;102211.59;;;15.68;56.37
55656;BME280;41530;52.382;5.270;2023-02-18T02:27:05;102210.97;;;15.64;56.40
55656;BME280;41530;52.382;5.270;2023-02-18T02:38:30;102170.44;;;15.62;56.50
55656;BME280;41530;52.382;5.270;2023-02-18T02:41:16;102154.59;;;15.61;56.57
55656;BME280;41530;52.382;5.270;2023-02-18T02:43:54;102159.81;;;15.62;56.36
55656;BME280;41530;52.382;5.270;2023-02-18T02:46:30;102146.66;;;15.61;56.39
55656;BME280;41530;52.382;5.270;2023-02-18T02:54:21;102136.38;;;15.56;56.50
55656;BME280;41530;52.382;5.270;2023-02-18T02:56:48;102137.94;;;15.59;56.25
55656;BME280;41530;52.382;5.270;2023-02-18T02:59:21;102122.66;;;15.50;56.41
55656;BME280;41530;52.382;5.270;2023-02-18T03:04:41;102136.03;;;15.61;56.54
55656;BME280;41530;52.382;5.270;2023-02-18T03:07:36;102137.84;;;15.60;56.47
55656;BME280;41530;52.382;5.270;2023-02-18T03:13:17;102119.50;;;15.57;56.59
55656;BME280;41530;52.382;5.270;2023-02-18T03:15:56;102108.66;;;15.60;56.40
55656;BME280;41530;52.382;5.270;2023-02-18T03:21:09;102093.94;;;15.56;56.42
55656;BME280;41530;52.382;5.270;2023-02-18T03:23:49;102093.94;;;15.56;56.70
55656;BME280;41530;52.382;5.270;2023-02-18T03:26:19;102090.34;;;15.57;56.42
55656;BME280;41530;52.382;5.270;2023-02-18T03:28:48;102077.19;;;15.56;56.50
55656;BME280;41530;52.382;5.270;2023-02-18T03:31:18;102067.41;;;15.56;56.46
55656;BME280;41530;52.382;5.270;2023-02-18T03:34:03;102059.66;;;15.53;56.72
55656;BME280;41530;52.382;5.270;2023-02-18T03:36:32;102046.19;;;15.56;56.42
55656;BME280;41530;52.382;5.270;2023-02-18T03:39:09;102045.34;;;15.56;56.73
55656;BME280;41530;52.382;5.270;2023-02-18T03:41:36;102044.50;;;15.55;56.73
55656;BME280;41530;52.382;5.270;2023-02-18T03:44:05;102039.47;;;15.51;56.62
55656;BME280;41530;52.382;5.270;2023-02-18T03:46:33;102024.53;;;15.50;56.75
55656;BME280;41530;52.382;5.270;2023-02-18T03:49:00;101998.56;;;15.42;56.80
55656;BME280;41530;52.382;5.270;2023-02-18T03:51:27;101991.47;;;15.43;56.75
55656;BME280;41530;52.382;5.270;2023-02-18T03:53:54;102020.28;;;15.47;56.80
55656;BME280;41530;52.382;5.270;2023-02-18T03:56:21;102006.72;;;15.52;56.76
55656;BME280;41530;52.382;5.270;2023-02-18T03:58:47;102000.56;;;15.51;56.76
55656;BME280;41530;52.382;5.270;2023-02-18T04:01:15;102008.72;;;15.48;56.80
55656;BME280;41530;52.382;5.270;2023-02-18T04:03:41;102013.81;;;15.51;57.14
55656;BME280;41530;52.382;5.270;2023-02-18T04:06:08;102007.75;;;15.49;57.14
55656;BME280;41530;52.382;5.270;2023-02-18T04:08:35;102007.75;;;15.49;57.13
55656;BME280;41530;52.382;5.270;2023-02-18T04:11:02;102000.66;;;15.50;57.16
55656;BME280;41530;52.382;5.270;2023-02-18T04:13:30;101990.38;;;15.45;57.19
55656;BME280;41530;52.382;5.270;2023-02-18T04:15:56;101989.31;;;15.48;57.16
55656;BME280;41530;52.382;5.270;2023-02-18T04:18:23;101980.84;;;15.43;57.15
55656;BME280;41530;52.382;5.270;2023-02-18T04:20:50;101977.25;;;15.44;57.37
55656;BME280;41530;52.382;5.270;2023-02-18T04:23:17;101980.63;;;15.46;57.41
55656;BME280;41530;52.382;5.270;2023-02-18T04:25:43;101981.81;;;15.42;57.36
55656;BME280;41530;52.382;5.270;2023-02-18T04:28:15;101955.94;;;15.32;57.60
55656;BME280;41530;52.382;5.270;2023-02-18T04:30:43;101977.34;;;15.42;57.48
55656;BME280;41530;52.382;5.270;2023-02-18T04:33:10;101974.91;;;15.39;57.71
55656;BME280;41530;52.382;5.270;2023-02-18T04:35:37;101969.63;;;15.39;57.54
55656;BME280;41530;52.382;5.270;2023-02-18T04:38:08;101967.28;;;15.34;57.53
55656;BME280;41530;52.382;5.270;2023-02-18T04:40:35;101963.56;;;15.37;57.62
55656;BME280;41530;52.382;5.270;2023-02-18T04:43:02;101943.53;;;15.33;57.52
55656;BME280;41530;52.382;5.270;2023-02-18T04:45:29;101958.28;;;15.37;57.80
55656;BME280;41530;52.382;5.270;2023-02-18T04:47:56;101945.97;;;15.36;57.68
55656;BME280;41530;52.382;5.270;2023-02-18T04:50:22;101945.34;;;15.32;57.75
55656;BME280;41530;52.382;5.270;2023-02-18T04:52:49;101946.06;;;15.34;57.79
55656;BME280;41530;52.382;5.270;2023-02-18T04:55:16;101944.63;;;15.30;57.68
55656;BME280;41530;52.382;5.270;2023-02-18T04:57:43;101937.28;;;15.34;57.75
55656;BME280;41530;52.382;5.270;2023-02-18T05:00:14;101942.69;;;15.32;58.04
55656;BME280;41530;52.382;5.270;2023-02-18T05:02:41;101943.53;;;15.33;57.92
55656;BME280;41530;52.382;5.270;2023-02-18T05:05:08;101935.69;;;15.31;57.89
55656;BME280;41530;52.382;5.270;2023-02-18T05:07:34;101935.81;;;15.30;57.86
55656;BME280;41530;52.382;5.270;2023-02-18T05:10:02;101931.47;;;15.29;57.95
55656;BME280;41530;52.382;5.270;2023-02-18T05:12:29;101935.81;;;15.30;58.03
55656;BME280;41530;52.382;5.270;2023-02-18T05:14:55;101908.78;;;15.25;58.08
55656;BME280;41530;52.382;5.270;2023-02-18T05:17:22;101911.22;;;15.28;58.06
55656;BME280;41530;52.382;5.270;2023-02-18T05:19:49;101905.91;;;15.28;57.98
55656;BME280;41530;52.382;5.270;2023-02-18T05:22:15;101913.88;;;15.28;58.22
55656;BME280;41530;52.382;5.270;2023-02-18T05:24:42;101918.31;;;15.27;58.23
55656;BME280;41530;52.382;5.270;2023-02-18T05:27:08;101913.34;;;15.23;58.42
55656;BME280;41530;52.382;5.270;2023-02-18T05:29:35;101910.47;;;15.26;58.25
55656;BME280;41530;52.382;5.270;2023-02-18T05:32:01;101896.38;;;15.25;58.33
55656;BME280;41530;52.382;5.270;2023-02-18T05:34:28;101898.19;;;15.25;58.58
55656;BME280;41530;52.382;5.270;2023-02-18T05:36:55;101891.06;;;15.25;58.52
55656;BME280;41530;52.382;5.270;2023-02-18T05:39:21;101903.69;;;15.22;58.55
55656;BME280;41530;52.382;5.270;2023-02-18T05:41:48;101884.41;;;15.20;58.48
55656;BME280;41530;52.382;5.270;2023-02-18T05:44:14;101889.94;;;15.17;58.59
55656;BME280;41530;52.382;5.270;2023-02-18T05:46:58;101904.66;;;15.21;58.68
55656;BME280;41530;52.382;5.270;2023-02-18T05:49:25;101896.69;;;15.21;58.64
55656;BME280;41530;52.382;5.270;2023-02-18T05:51:52;101880.06;;;15.19;58.84
55656;BME280;41530;52.382;5.270;2023-02-18T05:54:18;101875.50;;;15.21;58.93
55656;BME280;41530;52.382;5.270;2023-02-18T05:56:45;101882.72;;;15.19;58.91
55656;BME280;41530;52.382;5.270;2023-02-18T05:59:12;101890.78;;;15.17;58.77
55656;BME280;41530;52.382;5.270;2023-02-18T06:01:39;101891.84;;;15.15;58.82
55656;BME280;41530;52.382;5.270;2023-02-18T06:04:06;101893.66;;;15.14;58.67
55656;BME280;41530;52.382;5.270;2023-02-18T06:06:33;101897.16;;;15.15;58.82
55656;BME280;41530;52.382;5.270;2023-02-18T06:09:01;101895.56;;;15.12;58.75
55656;BME280;41530;52.382;5.270;2023-02-18T06:11:27;101908.81;;;15.12;58.75
55656;BME280;41530;52.382;5.270;2023-02-18T06:13:54;101889.41;;;15.12;58.83
55656;BME280;41530;52.382;5.270;2023-02-18T06:16:20;101885.41;;;15.06;58.71
55656;BME280;41530;52.382;5.270;2023-02-18T06:18:47;101900.25;;;15.09;58.78
55656;BME280;41530;52.382;5.270;2023-02-18T06:21:14;101906.28;;;15.11;59.00
55656;BME280;41530;52.382;5.270;2023-02-18T06:23:40;101904.59;;;15.10;58.73
55656;BME280;41530;52.382;5.270;2023-02-18T06:26:07;101904.69;;;15.08;58.73
55656;BME280;41530;52.382;5.270;2023-02-18T06:28:34;101899.50;;;15.07;58.65
55656;BME280;41530;52.382;5.270;2023-02-18T06:31:01;101872.25;;;15.05;58.69
55656;BME280;41530;52.382;5.270;2023-02-18T06:33:28;101896.94;;;15.05;58.73
55656;BME280;41530;52.382;5.270;2023-02-18T06:35:57;101908.53;;;15.04;58.39
55656;BME280;41530;52.382;5.270;2023-02-18T06:38:24;101905.88;;;15.04;58.44
55656;BME280;41530;52.382;5.270;2023-02-18T06:40:51;101900.59;;;15.04;58.40
55656;BME280;41530;52.382;5.270;2023-02-18T06:43:19;101895.28;;;15.04;58.47
55656;BME280;41530;52.382;5.270;2023-02-18T06:45:46;101904.28;;;15.02;58.49
55656;BME280;41530;52.382;5.270;2023-02-18T06:48:12;101863.81;;;15.00;58.47
55656;BME280;41530;52.382;5.270;2023-02-18T06:50:40;101897.31;;;15.01;58.44
55656;BME280;41530;52.382;5.270;2023-02-18T06:53:08;101863.06;;;14.97;58.42
55656;BME280;41530;52.382;5.270;2023-02-18T06:55:35;101866.78;;;14.95;58.50
55656;BME280;41530;52.382;5.270;2023-02-18T06:58:02;101878.84;;;14.99;58.49
55656;BME280;41530;52.382;5.270;2023-02-18T07:00:29;101885.00;;;15.00;58.38
55656;BME280;41530;52.382;5.270;2023-02-18T07:02:56;101866.47;;;15.00;58.32
55656;BME280;41530;52.382;5.270;2023-02-18T07:05:22;101868.16;;;15.01;58.55
55656;BME280;41530;52.382;5.270;2023-02-18T07:07:49;101865.28;;;15.04;58.36
55656;BME280;41530;52.382;5.270;2023-02-18T07:10:16;101862.38;;;15.07;58.38
55656;BME280;41530;52.382;5.270;2023-02-18T07:12:42;101863.97;;;15.09;58.25
55656;BME280;41530;52.382;5.270;2023-02-18T07:15:09;101862.19;;;15.10;58.20
55656;BME280;41530;52.382;5.270;2023-02-18T07:17:36;101849.66;;;15.12;58.21
55656;BME280;41530;52.382;5.270;2023-02-18T07:20:03;101845.09;;;15.14;58.06
55656;BME280;41530;52.382;5.270;2023-02-18T07:22:30;101855.59;;;15.15;58.15
55656;BME280;41530;52.382;5.270;2023-02-18T07:24:57;101844.88;;;15.17;57.86
55656;BME280;41530;52.382;5.270;2023-02-18T07:27:24;101847.53;;;15.17;58.32
55656;BME280;41530;52.382;5.270;2023-02-18T07:29:50;101845.00;;;15.15;57.90
55656;BME280;41530;52.382;5.270;2023-02-18T07:32:18;101852.59;;;15.20;57.82
55656;BME280;41530;52.382;5.270;2023-02-18T07:34:45;101872.00;;;15.20;57.89
55656;BME280;41530;52.382;5.270;2023-02-18T07:37:11;101860.06;;;15.15;57.70
55656;BME280;41530;52.382;5.270;2023-02-18T07:39:39;101871.88;;;15.22;57.75
55656;BME280;41530;52.382;5.270;2023-02-18T07:42:06;101864.78;;;15.22;57.80
55656;BME280;41530;52.382;5.270;2023-02-18T07:44:34;101864.78;;;15.22;57.76
55656;BME280;41530;52.382;5.270;2023-02-18T07:47:00;101858.00;;;15.18;57.75
55656;BME280;41530;52.382;5.270;2023-02-18T07:49:28;101873.38;;;15.26;57.68
55656;BME280;41530;52.382;5.270;2023-02-18T07:51:54;101858.53;;;15.23;57.77
55656;BME280;41530;52.382;5.270;2023-02-18T07:54:21;101867.31;;;15.24;57.68
55656;BME280;41530;52.382;5.270;2023-02-18T07:56:48;101874.84;;;15.30;57.62
55656;BME280;41530;52.382;5.270;2023-02-18T07:59:14;101877.34;;;15.31;57.88
55656;BME280;41530;52.382;5.270;2023-02-18T08:01:41;101879.91;;;15.33;57.58
55656;BME280;41530;52.382;5.270;2023-02-18T08:04:10;101871.34;;;15.29;57.62
55656;BME280;41530;52.382;5.270;2023-02-18T08:06:43;101878.84;;;15.36;57.96
55656;BME280;41530;52.382;5.270;2023-02-18T08:09:12;101889.44;;;15.36;57.60
55656;BME280;41530;52.382;5.270;2023-02-18T08:11:39;101881.59;;;15.34;57.82
55656;BME280;41530;52.382;5.270;2023-02-18T08:14:05;101890.28;;;15.36;57.44
55656;BME280;41530;52.382;5.270;2023-02-18T08:16:32;101899.81;;;15.39;57.50
55656;BME280;41530;52.382;5.270;2023-02-18T08:19:00;101890.06;;;15.39;57.57
55656;BME280;41530;52.382;5.270;2023-02-18T08:21:29;101896.22;;;15.40;57.58
55656;BME280;41530;52.382;5.270;2023-02-18T08:23:57;101885.84;;;15.37;57.49
55656;BME280;41530;52.382;5.270;2023-02-18T08:26:23;101901.53;;;15.40;57.48
55656;BME280;41530;52.382;5.270;2023-02-18T08:28:50;101899.59;;;15.42;57.80
55656;BME280;41530;52.382;5.270;2023-02-18T08:31:21;101888.16;;;15.41;57.38
55656;BME280;41530;52.382;5.270;2023-02-18T08:33:49;101898.75;;;15.41;57.27
55656;BME280;41530;52.382;5.270;2023-02-18T08:36:16;101886.91;;;15.34;57.24
55656;BME280;41530;52.382;5.270;2023-02-18T08:38:43;101883.41;;;15.33;57.52
55656;BME280;41530;52.382;5.270;2023-02-18T08:41:10;101889.31;;;15.37;57.70
55656;BME280;41530;52.382;5.270;2023-02-18T08:43:40;101885.94;;;15.35;57.94
55656;BME280;41530;52.382;5.270;2023-02-18T08:46:06;101881.38;;;15.37;57.52
55656;BME280;41530;52.382;5.270;2023-02-18T08:48:41;101871.50;;;15.39;57.67
55656;BME280;41530;52.382;5.270;2023-02-18T08:51:16;101883.59;;;15.43;57.85
55656;BME280;41530;52.382;5.270;2023-02-18T08:53:43;101883.69;;;15.42;57.69
55656;BME280;41530;52.382;5.270;2023-02-18T08:56:13;101886.00;;;15.46;57.71
55656;BME280;41530;52.382;5.270;2023-02-18T08:58:40;101887.19;;;15.42;57.65
55656;BME280;41530;52.382;5.270;2023-02-18T09:01:09;101874.53;;;15.46;57.54
55656;BME280;41530;52.382;5.270;2023-02-18T09:03:37;101886.72;;;15.48;58.09
55656;BME280;41530;52.382;5.270;2023-02-18T09:06:04;101905.94;;;15.52;57.70
55656;BME280;41530;52.382;5.270;2023-02-18T09:08:31;101910.28;;;15.53;57.75
55656;BME280;41530;52.382;5.270;2023-02-18T09:11:00;101905.81;;;15.53;58.12
55656;BME280;41530;52.382;5.270;2023-02-18T09:13:30;101909.25;;;15.55;57.89
55656;BME280;41530;52.382;5.270;2023-02-18T09:16:02;101909.25;;;15.55;57.86
55656;BME280;41530;52.382;5.270;2023-02-18T09:18:30;101905.75;;;15.55;57.98
55656;BME280;41530;52.382;5.270;2023-02-18T09:20:58;101902.03;;;15.57;57.74
55656;BME280;41530;52.382;5.270;2023-02-18T09:23:27;101914.19;;;15.60;57.84
55656;BME280;41530;52.382;5.270;2023-02-18T09:25:55;101920.69;;;15.56;57.92
55656;BME280;41530;52.382;5.270;2023-02-18T09:28:22;101912.38;;;15.60;57.56
55656;BME280;41530;52.382;5.270;2023-02-18T09:30:49;101913.47;;;15.58;57.61
55656;BME280;41530;52.382;5.270;2023-02-18T09:33:19;101912.50;;;15.59;57.59
55656;BME280;41530;52.382;5.270;2023-02-18T09:35:46;101929.03;;;15.62;57.52
55656;BME280;41530;52.382;5.270;2023-02-18T09:38:15;101913.97;;;15.63;57.51
55656;BME280;41530;52.382;5.270;2023-02-18T09:40:48;101912.50;;;15.59;57.75
55656;BME280;41530;52.382;5.270;2023-02-18T09:43:35;101931.56;;;15.64;57.84
55656;BME280;41530;52.382;5.270;2023-02-18T09:46:13;101911.41;;;15.61;58.04
55656;BME280;41530;52.382;5.270;2023-02-18T09:48:43;101931.56;;;15.64;57.91
55656;BME280;41530;52.382;5.270;2023-02-18T09:51:13;101941.13;;;15.66;57.79
55656;BME280;41530;52.382;5.270;2023-02-18T09:53:42;101925.94;;;15.68;57.71
55656;BME280;41530;52.382;5.270;2023-02-18T09:56:13;101924.13;;;15.69;58.06
55656;BME280;41530;52.382;5.270;2023-02-18T09:58:41;101932.94;;;15.70;57.95
55656;BME280;41530;52.382;5.270;2023-02-18T10:01:27;101926.91;;;15.67;58.00
55656;BME280;41530;52.382;5.270;2023-02-18T10:04:04;101932.69;;;15.73;58.09
55656;BME280;41530;52.382;5.270;2023-02-18T10:06:33;101933.53;;;15.73;58.19
55656;BME280;41530;52.382;5.270;2023-02-18T10:11:42;101955.38;;;15.77;57.49
55656;BME280;41530;52.382;5.270;2023-02-18T10:14:13;101931.72;;;15.74;57.67
55656;BME280;41530;52.382;5.270;2023-02-18T10:16:42;101938.72;;;15.75;57.56
55656;BME280;41530;52.382;5.270;2023-02-18T10:19:18;101938.28;;;15.81;57.73
55656;BME280;41530;52.382;5.270;2023-02-18T10:21:46;101946.25;;;15.81;57.27
55656;BME280;41530;52.382;5.270;2023-02-18T10:26:58;101951.44;;;15.82;57.32
55656;BME280;41530;52.382;5.270;2023-02-18T10:29:25;101962.66;;;15.86;57.28
55656;BME280;41530;52.382;5.270;2023-02-18T10:32:01;101950.50;;;15.83;57.45
55656;BME280;41530;52.382;5.270;2023-02-18T10:34:43;101958.94;;;15.88;57.46
55656;BME280;41530;52.382;5.270;2023-02-18T10:40:18;101965.09;;;15.89;57.26
55656;BME280;41530;52.382;5.270;2023-02-18T10:45:40;101959.69;;;15.90;57.56
55656;BME280;41530;52.382;5.270;2023-02-18T10:51:25;101976.00;;;15.97;57.23
55656;BME280;41530;52.382;5.270;2023-02-18T10:53:52;101961.63;;;15.99;56.84
55656;BME280;41530;52.382;5.270;2023-02-18T10:56:38;101965.97;;;16.00;57.02
55656;BME280;41530;52.382;5.270;2023-02-18T10:59:26;101953.69;;;15.99;56.80
55656;BME280;41530;52.382;5.270;2023-02-18T11:02:03;101970.97;;;16.05;56.84
55656;BME280;41530;52.382;5.270;2023-02-18T11:04:41;101969.16;;;16.06;56.96
55656;BME280;41530;52.382;5.270;2023-02-18T11:07:20;101975.19;;;16.08;57.02
55656;BME280;41530;52.382;5.270;2023-02-18T11:10:24;101969.03;;;16.07;56.98
55656;BME280;41530;52.382;5.270;2023-02-18T11:12:57;101970.00;;;16.06;56.89
55656;BME280;41530;52.382;5.270;2023-02-18T11:15:27;101971.91;;;16.04;56.91
55656;BME280;41530;52.382;5.270;2023-02-18T11:17:57;101971.59;;;16.09;57.28
55656;BME280;41530;52.382;5.270;2023-02-18T11:22:56;101969.78;;;16.09;57.51
55656;BME280;41530;52.382;5.270;2023-02-18T11:25:30;101968.09;;;16.08;58.01
55656;BME280;41530;52.382;5.270;2023-02-18T11:30:48;101974.97;;;16.11;58.06
55656;BME280;41530;52.382;5.270;2023-02-18T11:33:31;101984.50;;;16.13;58.08
55656;BME280;41530;52.382;5.270;2023-02-18T11:36:09;101975.81;;;16.11;58.22
55656;BME280;41530;52.382;5.270;2023-02-18T11:38:47;101967.72;;;16.13;58.17
55656;BME280;41530;52.382;5.270;2023-02-18T11:41:18;101990.66;;;16.14;58.00
55656;BME280;41530;52.382;5.270;2023-02-18T11:43:48;101985.00;;;16.18;58.06
55656;BME280;41530;52.382;5.270;2023-02-18T11:46:18;101976.41;;;16.15;58.05
55656;BME280;41530;52.382;5.270;2023-02-18T11:48:46;101971.72;;;16.18;57.92
55656;BME280;41530;52.382;5.270;2023-02-18T11:51:21;101984.78;;;16.21;58.24
55656;BME280;41530;52.382;5.270;2023-02-18T11:53:58;101979.38;;;16.23;58.43
55656;BME280;41530;52.382;5.270;2023-02-18T11:56:34;101980.22;;;16.23;58.37
55656;BME280;41530;52.382;5.270;2023-02-18T11:59:03;101972.34;;;16.22;57.98
55656;BME280;41530;52.382;5.270;2023-02-18T12:01:41;101979.94;;;16.26;58.32
55656;BME280;41530;52.382;5.270;2023-02-18T12:04:15;101982.38;;;16.29;58.16
55656;BME280;41530;52.382;5.270;2023-02-18T12:06:50;101987.59;;;16.31;58.08
55656;BME280;41530;52.382;5.270;2023-02-18T12:11:56;101983.13;;;16.31;58.25
55656;BME280;41530;52.382;5.270;2023-02-18T12:14:26;101975.38;;;16.28;58.06
55656;BME280;41530;52.382;5.270;2023-02-18T12:17:24;101980.34;;;16.33;58.31
55656;BME280;41530;52.382;5.270;2023-02-18T12:20:03;101978.53;;;16.33;58.21
55656;BME280;41530;52.382;5.270;2023-02-18T12:22:42;101974.19;;;16.32;57.84
55656;BME280;41530;52.382;5.270;2023-02-18T12:25:39;101975.78;;;16.35;58.19
55656;BME280;41530;52.382;5.270;2023-02-18T12:41:54;101982.78;;;16.36;57.55
55656;BME280;41530;52.382;5.270;2023-02-18T12:44:37;101981.81;;;16.37;57.80
55656;BME280;41530;52.382;5.270;2023-02-18T12:47:23;101988.78;;;16.38;58.09
55656;BME280;41530;52.382;5.270;2023-02-18T12:58:05;101993.16;;;16.39;57.61
55656;BME280;41530;52.382;5.270;2023-02-18T13:03:25;102001.00;;;16.40;57.89
55656;BME280;41530;52.382;5.270;2023-02-18T13:06:23;101987.97;;;16.37;57.93
55656;BME280;41530;52.382;5.270;2023-02-18T13:09:07;102011.63;;;16.40;57.65
55656;BME280;41530;52.382;5.270;2023-02-18T13:11:58;102014.28;;;16.40;57.90
55656;BME280;41530;52.382;5.270;2023-02-18T13:14:30;102009.94;;;16.39;57.80
55656;BME280;41530;52.382;5.270;2023-02-18T13:17:00;102020.44;;;16.41;57.52
55656;BME280;41530;52.382;5.270;2023-02-18T13:19:46;102015.34;;;16.38;57.94
55656;BME280;41530;52.382;5.270;2023-02-18T13:22:21;102016.94;;;16.40;57.75
55656;BME280;41530;52.382;5.270;2023-02-18T13:24:54;102015.03;;;16.43;57.79
55656;BME280;41530;52.382;5.270;2023-02-18T13:27:39;102003.78;;;16.39;57.82
55656;BME280;41530;52.382;5.270;2023-02-18T13:30:15;102015.88;;;16.43;57.82
55656;BME280;41530;52.382;5.270;2023-02-18T13:32:59;102008.00;;;16.42;57.66
55656;BME280;41530;52.382;5.270;2023-02-18T13:40:38;102012.38;;;16.43;57.53
55656;BME280;41530;52.382;5.270;2023-02-18T13:43:34;102013.94;;;16.45;57.63
55656;BME280;41530;52.382;5.270;2023-02-18T13:48:30;102017.44;;;16.46;57.65
55656;BME280;41530;52.382;5.270;2023-02-18T13:51:02;102011.41;;;16.44;57.59
55656;BME280;41530;52.382;5.270;2023-02-18T13:53:37;102007.69;;;16.46;57.62
55656;BME280;41530;52.382;5.270;2023-02-18T13:56:09;102014.78;;;16.46;57.83
55656;BME280;41530;52.382;5.270;2023-02-18T13:58:41;102018.19;;;16.48;57.75
55656;BME280;41530;52.382;5.270;2023-02-18T14:01:13;102008.53;;;16.47;57.60
55656;BME280;41530;52.382;5.270;2023-02-18T14:08:46;102016.25;;;16.50;57.57
55656;BME280;41530;52.382;5.270;2023-02-18T14:13:48;102016.25;;;16.50;57.36
55656;BME280;41530;52.382;5.270;2023-02-18T14:16:18;102011.28;;;16.45;57.39
55656;BME280;41530;52.382;5.270;2023-02-18T14:28:44;102018.78;;;16.51;57.52
55656;BME280;41530;52.382;5.270;2023-02-18T14:49:53;102023.28;;;16.51;57.47
55656;BME280;41530;52.382;5.270;2023-02-18T14:52:37;102028.44;;;16.52;57.69
55656;BME280;41530;52.382;5.270;2023-02-18T14:55:17;102028.59;;;16.51;57.75
55656;BME280;41530;52.382;5.270;2023-02-18T14:57:50;102026.16;;;16.48;57.64
55656;BME280;41530;52.382;5.270;2023-02-18T15:00:22;102024.94;;;16.52;57.85
55656;BME280;41530;52.382;5.270;2023-02-18T15:02:51;102026.63;;;16.53;57.65
55656;BME280;41530;52.382;5.270;2023-02-18T15:05:26;102027.75;;;16.50;57.89
55656;BME280;41530;52.382;5.270;2023-02-18T15:07:55;102029.28;;;16.53;57.71
55656;BME280;41530;52.382;5.270;2023-02-18T15:13:17;102038.38;;;16.50;58.02
55656;BME280;41530;52.382;5.270;2023-02-18T15:15:48;102035.72;;;16.50;57.97